sensor_id;sensor_type;location;lat;lon;timestamp;temperature;humidity
6008;DHT22;3032;49.484;11.112;2022-08-19T00:00:32;22.90;99.90
6008;DHT22;3032;49.484;11.112;2022-08-19T00:02:58;23.00;99.90
6008;DHT22;3032;49.484;11.112;2022-08-19T00:05:23;22.90;99.90
6008;DHT22;3032;49.484;11.112;2022-08-19T00:07:50;22.90;99.90
6008;DHT22;3032;49.484;11.112;2022-08-19T00:10:16;22.80;99.90
6008;DHT22;3032;49.484;11.112;2022-08-19T00:12:42;22.90;99.90
6008;DHT22;3032;49.484;11.112;2022-08-19T00:15:11;22.90;99.90
6008;DHT22;3032;49.484;11.112;2022-08-19T00:17:42;23.00;99.90
6008;DHT22;3032;49.484;11.112;2022-08-19T00:20:09;23.00;99.90
6008;DHT22;3032;49.484;11.112;2022-08-19T00:22:36;23.00;99.90
6008;DHT22;3032;49.484;11.112;2022-08-19T00:25:02;23.00;99.90
6008;DHT22;3032;49.484;11.112;2022-08-19T00:27:28;22.90;99.90
6008;DHT22;3032;49.484;11.112;2022-08-19T00:29:54;23.00;99.90
6008;DHT22;3032;49.484;11.112;2022-08-19T00:32:20;23.00;99.90
6008;DHT22;3032;49.484;11.112;2022-08-19T00:34:46;23.10;99.90
6008;DHT22;3032;49.484;11.112;2022-08-19T00:37:12;23.10;99.90
6008;DHT22;3032;49.484;11.112;2022-08-19T00:39:38;23.10;99.90
6008;DHT22;3032;49.484;11.112;2022-08-19T00:42:04;23.10;99.90
6008;DHT22;3032;49.484;11.112;2022-08-19T00:44:31;23.20;99.90
6008;DHT22;3032;49.484;11.112;2022-08-19T00:46:58;23.40;99.90
6008;DHT22;3032;49.484;11.112;2022-08-19T00:49:47;23.10;99.90
6008;DHT22;3032;49.484;11.112;2022-08-19T00:52:37;23.10;99.90
6008;DHT22;3032;49.484;11.112;2022-08-19T00:55:07;23.20;99.90
6008;DHT22;3032;49.484;11.112;2022-08-19T00:57:39;23.30;99.90
6008;DHT22;3032;49.484;11.112;2022-08-19T01:00:12;23.30;99.90
6008;DHT22;3032;49.484;11.112;2022-08-19T01:02:40;23.30;99.90
6008;DHT22;3032;49.484;11.112;2022-08-19T01:05:09;23.40;99.90
6008;DHT22;3032;49.484;11.112;2022-08-19T01:07:35;23.30;99.90
6008;DHT22;3032;49.484;11.112;2022-08-19T01:10:03;23.20;99.90
6008;DHT22;3032;49.484;11.112;2022-08-19T01:12:29;23.20;99.90
6008;DHT22;3032;49.484;11.112;2022-08-19T01:14:55;23.20;99.90
6008;DHT22;3032;49.484;11.112;2022-08-19T01:17:21;23.30;99.90
6008;DHT22;3032;49.484;11.112;2022-08-19T01:19:48;23.30;99.90
6008;DHT22;3032;49.484;11.112;2022-08-19T01:24:48;23.30;99.90
6008;DHT22;3032;49.484;11.112;2022-08-19T01:27:14;23.20;99.90
6008;DHT22;3032;49.484;11.112;2022-08-19T01:29:42;23.20;99.90
6008;DHT22;3032;49.484;11.112;2022-08-19T01:32:12;23.30;99.90
6008;DHT22;3032;49.484;11.112;2022-08-19T01:34:40;23.40;99.90
6008;DHT22;3032;49.484;11.112;2022-08-19T01:37:08;23.40;99.90
6008;DHT22;3032;49.484;11.112;2022-08-19T01:39:38;23.40;99.90
6008;DHT22;3032;49.484;11.112;2022-08-19T01:42:05;23.40;99.90
6008;DHT22;3032;49.484;11.112;2022-08-19T01:44:32;23.30;99.90
6008;DHT22;3032;49.484;11.112;2022-08-19T01:46:58;23.40;99.90
6008;DHT22;3032;49.484;11.112;2022-08-19T01:49:24;23.50;99.90
6008;DHT22;3032;49.484;11.112;2022-08-19T01:51:52;23.50;99.90
6008;DHT22;3032;49.484;11.112;2022-08-19T01:54:20;23.50;99.90
6008;DHT22;3032;49.484;11.112;2022-08-19T01:56:46;23.50;99.90
6008;DHT22;3032;49.484;11.112;2022-08-19T01:59:15;23.40;99.90
6008;DHT22;3032;49.484;11.112;2022-08-19T02:01:41;23.50;99.90
6008;DHT22;3032;49.484;11.112;2022-08-19T02:04:07;23.30;99.90
6008;DHT22;3032;49.484;11.112;2022-08-19T02:06:33;23.30;99.90
6008;DHT22;3032;49.484;11.112;2022-08-19T02:08:59;23.30;99.90
6008;DHT22;3032;49.484;11.112;2022-08-19T02:11:28;23.20;99.90
6008;DHT22;3032;49.484;11.112;2022-08-19T02:13:57;23.30;99.90
6008;DHT22;3032;49.484;11.112;2022-08-19T02:16:23;23.30;99.90
6008;DHT22;3032;49.484;11.112;2022-08-19T02:18:49;23.30;99.90
6008;DHT22;3032;49.484;11.112;2022-08-19T02:21:17;23.30;99.90
6008;DHT22;3032;49.484;11.112;2022-08-19T02:23:43;23.30;99.90
6008;DHT22;3032;49.484;11.112;2022-08-19T02:26:09;23.30;99.90
6008;DHT22;3032;49.484;11.112;2022-08-19T02:28:35;23.30;99.90
6008;DHT22;3032;49.484;11.112;2022-08-19T02:31:02;23.40;99.90
6008;DHT22;3032;49.484;11.112;2022-08-19T02:33:28;23.40;99.90
6008;DHT22;3032;49.484;11.112;2022-08-19T02:35:54;23.40;99.90
6008;DHT22;3032;49.484;11.112;2022-08-19T02:38:20;23.40;99.90
6008;DHT22;3032;49.484;11.112;2022-08-19T02:40:54;23.40;99.90
6008;DHT22;3032;49.484;11.112;2022-08-19T02:43:20;23.40;99.90
6008;DHT22;3032;49.484;11.112;2022-08-19T02:45:47;23.40;99.90
6008;DHT22;3032;49.484;11.112;2022-08-19T02:48:17;23.40;99.90
6008;DHT22;3032;49.484;11.112;2022-08-19T02:50:45;23.40;99.90
6008;DHT22;3032;49.484;11.112;2022-08-19T02:53:11;23.40;99.90
6008;DHT22;3032;49.484;11.112;2022-08-19T02:55:42;23.30;99.90
6008;DHT22;3032;49.484;11.112;2022-08-19T02:58:09;23.30;99.90
6008;DHT22;3032;49.484;11.112;2022-08-19T03:00:34;23.30;99.90
6008;DHT22;3032;49.484;11.112;2022-08-19T03:03:00;23.30;99.90
6008;DHT22;3032;49.484;11.112;2022-08-19T03:05:25;23.40;99.90
6008;DHT22;3032;49.484;11.112;2022-08-19T03:07:52;23.40;99.90
6008;DHT22;3032;49.484;11.112;2022-08-19T03:10:18;23.50;99.90
6008;DHT22;3032;49.484;11.112;2022-08-19T03:12:43;23.50;99.90
6008;DHT22;3032;49.484;11.112;2022-08-19T03:15:11;23.50;99.90
6008;DHT22;3032;49.484;11.112;2022-08-19T03:17:37;23.50;99.90
6008;DHT22;3032;49.484;11.112;2022-08-19T03:20:03;23.50;99.90
6008;DHT22;3032;49.484;11.112;2022-08-19T03:22:29;23.40;99.90
6008;DHT22;3032;49.484;11.112;2022-08-19T03:24:55;23.40;99.90
6008;DHT22;3032;49.484;11.112;2022-08-19T03:27:21;23.40;99.90
6008;DHT22;3032;49.484;11.112;2022-08-19T03:29:46;23.30;99.90
6008;DHT22;3032;49.484;11.112;2022-08-19T03:32:13;23.30;99.90
6008;DHT22;3032;49.484;11.112;2022-08-19T03:34:39;23.10;99.90
6008;DHT22;3032;49.484;11.112;2022-08-19T03:37:06;23.10;99.90
6008;DHT22;3032;49.484;11.112;2022-08-19T03:39:32;23.10;99.90
6008;DHT22;3032;49.484;11.112;2022-08-19T03:41:58;23.10;99.90
6008;DHT22;3032;49.484;11.112;2022-08-19T03:44:29;23.00;99.90
6008;DHT22;3032;49.484;11.112;2022-08-19T03:46:56;23.00;99.90
6008;DHT22;3032;49.484;11.112;2022-08-19T03:49:25;23.10;99.90
6008;DHT22;3032;49.484;11.112;2022-08-19T03:51:53;23.10;99.90
6008;DHT22;3032;49.484;11.112;2022-08-19T03:54:20;23.10;99.90
6008;DHT22;3032;49.484;11.112;2022-08-19T03:56:47;23.20;99.90
6008;DHT22;3032;49.484;11.112;2022-08-19T03:59:19;23.10;99.90
6008;DHT22;3032;49.484;11.112;2022-08-19T04:01:45;23.20;99.90
6008;DHT22;3032;49.484;11.112;2022-08-19T04:04:11;23.00;99.90
6008;DHT22;3032;49.484;11.112;2022-08-19T04:06:38;23.00;99.90
6008;DHT22;3032;49.484;11.112;2022-08-19T04:09:05;23.10;99.90
6008;DHT22;3032;49.484;11.112;2022-08-19T04:11:35;23.00;99.90
6008;DHT22;3032;49.484;11.112;2022-08-19T04:14:01;23.00;99.90
6008;DHT22;3032;49.484;11.112;2022-08-19T04:16:28;23.00;99.90
6008;DHT22;3032;49.484;11.112;2022-08-19T04:18:55;23.10;99.90
6008;DHT22;3032;49.484;11.112;2022-08-19T04:21:23;23.00;99.90
6008;DHT22;3032;49.484;11.112;2022-08-19T04:23:49;23.00;99.90
6008;DHT22;3032;49.484;11.112;2022-08-19T04:26:23;23.40;99.90
6008;DHT22;3032;49.484;11.112;2022-08-19T04:28:49;23.20;99.90
6008;DHT22;3032;49.484;11.112;2022-08-19T04:31:17;23.20;99.90
6008;DHT22;3032;49.484;11.112;2022-08-19T04:33:44;23.10;99.90
6008;DHT22;3032;49.484;11.112;2022-08-19T04:36:17;23.10;99.90
6008;DHT22;3032;49.484;11.112;2022-08-19T04:38:49;23.10;99.90
6008;DHT22;3032;49.484;11.112;2022-08-19T04:41:16;23.20;99.90
6008;DHT22;3032;49.484;11.112;2022-08-19T04:44:00;23.30;99.90
6008;DHT22;3032;49.484;11.112;2022-08-19T04:46:28;23.10;99.90
6008;DHT22;3032;49.484;11.112;2022-08-19T04:48:55;23.20;99.90
6008;DHT22;3032;49.484;11.112;2022-08-19T04:51:22;23.20;99.90
6008;DHT22;3032;49.484;11.112;2022-08-19T04:53:48;23.30;99.90
6008;DHT22;3032;49.484;11.112;2022-08-19T04:56:15;23.30;99.90
6008;DHT22;3032;49.484;11.112;2022-08-19T04:58:44;23.40;99.90
6008;DHT22;3032;49.484;11.112;2022-08-19T05:01:14;23.40;99.90
6008;DHT22;3032;49.484;11.112;2022-08-19T05:03:42;23.50;99.90
6008;DHT22;3032;49.484;11.112;2022-08-19T05:06:11;23.50;99.90
6008;DHT22;3032;49.484;11.112;2022-08-19T05:08:38;23.30;99.90
6008;DHT22;3032;49.484;11.112;2022-08-19T05:11:20;23.20;99.90
6008;DHT22;3032;49.484;11.112;2022-08-19T05:13:47;23.00;99.90
6008;DHT22;3032;49.484;11.112;2022-08-19T05:16:15;22.90;99.90
6008;DHT22;3032;49.484;11.112;2022-08-19T05:18:41;23.00;99.90
6008;DHT22;3032;49.484;11.112;2022-08-19T05:21:26;23.20;99.90
6008;DHT22;3032;49.484;11.112;2022-08-19T05:24:11;23.40;99.90
6008;DHT22;3032;49.484;11.112;2022-08-19T05:26:43;23.50;99.90
6008;DHT22;3032;49.484;11.112;2022-08-19T05:29:10;23.60;99.90
6008;DHT22;3032;49.484;11.112;2022-08-19T05:31:37;23.70;99.90
6008;DHT22;3032;49.484;11.112;2022-08-19T05:34:04;23.70;99.90
6008;DHT22;3032;49.484;11.112;2022-08-19T05:36:38;23.90;99.90
6008;DHT22;3032;49.484;11.112;2022-08-19T05:39:06;23.80;99.90
6008;DHT22;3032;49.484;11.112;2022-08-19T05:41:32;23.90;99.90
6008;DHT22;3032;49.484;11.112;2022-08-19T05:44:01;24.10;99.90
6008;DHT22;3032;49.484;11.112;2022-08-19T05:46:27;24.10;99.90
6008;DHT22;3032;49.484;11.112;2022-08-19T05:48:52;24.40;99.90
6008;DHT22;3032;49.484;11.112;2022-08-19T05:51:22;24.50;99.90
6008;DHT22;3032;49.484;11.112;2022-08-19T05:53:47;24.60;99.90
6008;DHT22;3032;49.484;11.112;2022-08-19T05:56:15;24.70;99.90
6008;DHT22;3032;49.484;11.112;2022-08-19T05:58:45;25.00;99.90
6008;DHT22;3032;49.484;11.112;2022-08-19T06:01:16;25.40;99.90
6008;DHT22;3032;49.484;11.112;2022-08-19T06:03:43;25.90;99.90
6008;DHT22;3032;49.484;11.112;2022-08-19T06:06:10;27.20;99.90
6008;DHT22;3032;49.484;11.112;2022-08-19T06:08:37;28.90;99.90
6008;DHT22;3032;49.484;11.112;2022-08-19T06:14:07;31.60;99.90
6008;DHT22;3032;49.484;11.112;2022-08-19T06:16:35;32.00;99.90
6008;DHT22;3032;49.484;11.112;2022-08-19T06:19:03;32.90;99.90
6008;DHT22;3032;49.484;11.112;2022-08-19T06:21:31;33.10;99.90
6008;DHT22;3032;49.484;11.112;2022-08-19T06:23:57;32.90;99.90
6008;DHT22;3032;49.484;11.112;2022-08-19T06:26:23;32.70;99.90
6008;DHT22;3032;49.484;11.112;2022-08-19T06:28:50;32.00;99.90
6008;DHT22;3032;49.484;11.112;2022-08-19T06:31:18;31.90;99.90
6008;DHT22;3032;49.484;11.112;2022-08-19T06:33:45;31.90;99.90
6008;DHT22;3032;49.484;11.112;2022-08-19T06:36:25;31.40;99.90
6008;DHT22;3032;49.484;11.112;2022-08-19T06:39:09;31.20;99.90
6008;DHT22;3032;49.484;11.112;2022-08-19T06:41:37;30.40;99.90
6008;DHT22;3032;49.484;11.112;2022-08-19T06:44:03;29.90;99.90
6008;DHT22;3032;49.484;11.112;2022-08-19T06:46:29;29.30;99.90
6008;DHT22;3032;49.484;11.112;2022-08-19T06:48:56;28.70;99.90
6008;DHT22;3032;49.484;11.112;2022-08-19T06:51:23;28.30;99.90
6008;DHT22;3032;49.484;11.112;2022-08-19T06:53:51;27.80;99.90
6008;DHT22;3032;49.484;11.112;2022-08-19T06:56:19;27.20;99.90
6008;DHT22;3032;49.484;11.112;2022-08-19T06:58:46;26.80;99.90
6008;DHT22;3032;49.484;11.112;2022-08-19T07:01:12;26.10;99.90
6008;DHT22;3032;49.484;11.112;2022-08-19T07:03:38;25.90;99.90
6008;DHT22;3032;49.484;11.112;2022-08-19T07:06:11;25.80;99.90
6008;DHT22;3032;49.484;11.112;2022-08-19T07:08:38;25.80;99.90
6008;DHT22;3032;49.484;11.112;2022-08-19T07:11:11;25.80;99.90
6008;DHT22;3032;49.484;11.112;2022-08-19T07:13:38;25.90;99.90
6008;DHT22;3032;49.484;11.112;2022-08-19T07:16:07;26.20;99.90
6008;DHT22;3032;49.484;11.112;2022-08-19T07:18:34;26.50;99.90
6008;DHT22;3032;49.484;11.112;2022-08-19T07:21:10;26.50;99.90
6008;DHT22;3032;49.484;11.112;2022-08-19T07:23:36;26.50;99.90
6008;DHT22;3032;49.484;11.112;2022-08-19T07:26:12;26.60;99.90
6008;DHT22;3032;49.484;11.112;2022-08-19T07:28:38;26.40;99.90
6008;DHT22;3032;49.484;11.112;2022-08-19T07:31:07;26.30;99.90
6008;DHT22;3032;49.484;11.112;2022-08-19T07:33:35;26.20;99.90
6008;DHT22;3032;49.484;11.112;2022-08-19T07:36:03;26.30;99.90
6008;DHT22;3032;49.484;11.112;2022-08-19T07:38:29;26.10;99.90
6008;DHT22;3032;49.484;11.112;2022-08-19T07:40:55;26.00;99.90
6008;DHT22;3032;49.484;11.112;2022-08-19T07:43:20;25.70;99.90
6008;DHT22;3032;49.484;11.112;2022-08-19T07:45:51;25.50;99.90
6008;DHT22;3032;49.484;11.112;2022-08-19T07:48:16;25.30;99.90
6008;DHT22;3032;49.484;11.112;2022-08-19T07:50:42;25.00;99.90
6008;DHT22;3032;49.484;11.112;2022-08-19T07:53:08;24.80;99.90
6008;DHT22;3032;49.484;11.112;2022-08-19T07:55:33;24.70;99.90
6008;DHT22;3032;49.484;11.112;2022-08-19T07:57:59;24.60;99.90
6008;DHT22;3032;49.484;11.112;2022-08-19T08:00:25;24.70;99.90
6008;DHT22;3032;49.484;11.112;2022-08-19T08:02:52;24.60;99.90
6008;DHT22;3032;49.484;11.112;2022-08-19T08:05:18;24.60;99.90
6008;DHT22;3032;49.484;11.112;2022-08-19T08:08:02;24.70;99.90
6008;DHT22;3032;49.484;11.112;2022-08-19T08:10:46;24.50;99.90
6008;DHT22;3032;49.484;11.112;2022-08-19T08:13:12;24.50;99.90
6008;DHT22;3032;49.484;11.112;2022-08-19T08:15:38;24.50;99.90
6008;DHT22;3032;49.484;11.112;2022-08-19T08:18:04;24.40;99.90
6008;DHT22;3032;49.484;11.112;2022-08-19T08:20:29;24.30;99.90
6008;DHT22;3032;49.484;11.112;2022-08-19T08:22:55;24.50;99.90
6008;DHT22;3032;49.484;11.112;2022-08-19T08:25:39;24.70;99.90
6008;DHT22;3032;49.484;11.112;2022-08-19T08:28:05;25.20;99.90
6008;DHT22;3032;49.484;11.112;2022-08-19T08:30:32;25.40;99.90
6008;DHT22;3032;49.484;11.112;2022-08-19T08:33:00;25.50;99.90
6008;DHT22;3032;49.484;11.112;2022-08-19T08:35:25;25.50;99.90
6008;DHT22;3032;49.484;11.112;2022-08-19T08:37:53;25.60;99.90
6008;DHT22;3032;49.484;11.112;2022-08-19T08:40:25;25.60;99.90
6008;DHT22;3032;49.484;11.112;2022-08-19T08:43:21;25.80;99.90
6008;DHT22;3032;49.484;11.112;2022-08-19T08:46:13;25.80;99.90
6008;DHT22;3032;49.484;11.112;2022-08-19T08:49:04;25.80;99.90
6008;DHT22;3032;49.484;11.112;2022-08-19T08:51:48;25.80;99.90
6008;DHT22;3032;49.484;11.112;2022-08-19T08:54:20;25.70;99.90
6008;DHT22;3032;49.484;11.112;2022-08-19T08:56:47;25.40;99.90
6008;DHT22;3032;49.484;11.112;2022-08-19T08:59:28;25.20;99.90
6008;DHT22;3032;49.484;11.112;2022-08-19T09:01:56;25.00;99.90
6008;DHT22;3032;49.484;11.112;2022-08-19T09:04:21;24.70;99.90
6008;DHT22;3032;49.484;11.112;2022-08-19T09:09:41;25.00;99.90
6008;DHT22;3032;49.484;11.112;2022-08-19T09:12:28;25.10;99.90
6008;DHT22;3032;49.484;11.112;2022-08-19T09:15:06;25.30;99.90
6008;DHT22;3032;49.484;11.112;2022-08-19T09:17:32;25.40;99.90
6008;DHT22;3032;49.484;11.112;2022-08-19T09:20:03;25.50;99.90
6008;DHT22;3032;49.484;11.112;2022-08-19T09:22:33;25.40;99.90
6008;DHT22;3032;49.484;11.112;2022-08-19T09:24:59;25.30;99.90
6008;DHT22;3032;49.484;11.112;2022-08-19T09:27:29;25.40;99.90
6008;DHT22;3032;49.484;11.112;2022-08-19T09:29:55;25.40;99.90
6008;DHT22;3032;49.484;11.112;2022-08-19T09:32:21;25.60;99.90
6008;DHT22;3032;49.484;11.112;2022-08-19T09:34:47;25.50;99.90
6008;DHT22;3032;49.484;11.112;2022-08-19T09:37:13;25.40;99.90
6008;DHT22;3032;49.484;11.112;2022-08-19T09:39:39;25.30;99.90
6008;DHT22;3032;49.484;11.112;2022-08-19T09:42:07;25.10;99.90
6008;DHT22;3032;49.484;11.112;2022-08-19T09:44:40;25.00;99.90
6008;DHT22;3032;49.484;11.112;2022-08-19T09:47:07;24.90;99.90
6008;DHT22;3032;49.484;11.112;2022-08-19T09:49:33;25.00;99.90
6008;DHT22;3032;49.484;11.112;2022-08-19T09:51:58;25.00;99.90
6008;DHT22;3032;49.484;11.112;2022-08-19T09:54:24;25.20;99.90
6008;DHT22;3032;49.484;11.112;2022-08-19T09:56:50;25.30;99.90
6008;DHT22;3032;49.484;11.112;2022-08-19T09:59:16;25.30;99.90
6008;DHT22;3032;49.484;11.112;2022-08-19T10:01:41;25.10;99.90
6008;DHT22;3032;49.484;11.112;2022-08-19T10:04:07;25.30;99.90
6008;DHT22;3032;49.484;11.112;2022-08-19T10:06:38;25.40;99.90
6008;DHT22;3032;49.484;11.112;2022-08-19T10:09:06;25.50;99.90
6008;DHT22;3032;49.484;11.112;2022-08-19T10:11:33;25.30;99.90
6008;DHT22;3032;49.484;11.112;2022-08-19T10:14:00;25.30;99.90
6008;DHT22;3032;49.484;11.112;2022-08-19T10:16:26;25.40;99.90
6008;DHT22;3032;49.484;11.112;2022-08-19T10:18:53;25.30;99.90
6008;DHT22;3032;49.484;11.112;2022-08-19T10:21:24;25.10;99.90
6008;DHT22;3032;49.484;11.112;2022-08-19T10:23:52;25.20;99.90
6008;DHT22;3032;49.484;11.112;2022-08-19T10:26:26;25.20;99.90
6008;DHT22;3032;49.484;11.112;2022-08-19T10:28:52;25.20;99.90
6008;DHT22;3032;49.484;11.112;2022-08-19T10:31:25;25.20;99.90
6008;DHT22;3032;49.484;11.112;2022-08-19T10:33:52;25.10;99.90
6008;DHT22;3032;49.484;11.112;2022-08-19T10:36:25;24.90;99.90
6008;DHT22;3032;49.484;11.112;2022-08-19T10:38:53;24.90;99.90
6008;DHT22;3032;49.484;11.112;2022-08-19T10:41:21;25.10;99.90
6008;DHT22;3032;49.484;11.112;2022-08-19T10:43:51;25.00;99.90
6008;DHT22;3032;49.484;11.112;2022-08-19T10:46:21;25.10;99.90
6008;DHT22;3032;49.484;11.112;2022-08-19T10:48:47;25.30;99.90
6008;DHT22;3032;49.484;11.112;2022-08-19T10:51:13;25.30;99.90
6008;DHT22;3032;49.484;11.112;2022-08-19T10:53:57;25.20;99.90
6008;DHT22;3032;49.484;11.112;2022-08-19T10:56:23;25.30;99.90
6008;DHT22;3032;49.484;11.112;2022-08-19T10:59:08;25.20;99.90
6008;DHT22;3032;49.484;11.112;2022-08-19T11:01:34;25.00;99.90
6008;DHT22;3032;49.484;11.112;2022-08-19T11:04:02;25.10;99.90
6008;DHT22;3032;49.484;11.112;2022-08-19T11:06:28;25.30;99.90
6008;DHT22;3032;49.484;11.112;2022-08-19T11:08:56;25.20;99.90
6008;DHT22;3032;49.484;11.112;2022-08-19T11:11:23;25.10;99.90
6008;DHT22;3032;49.484;11.112;2022-08-19T11:13:49;25.00;99.90
6008;DHT22;3032;49.484;11.112;2022-08-19T11:16:18;24.90;99.90
6008;DHT22;3032;49.484;11.112;2022-08-19T11:18:56;24.90;99.90
6008;DHT22;3032;49.484;11.112;2022-08-19T11:21:34;24.90;99.90
6008;DHT22;3032;49.484;11.112;2022-08-19T11:24:09;25.00;99.90
6008;DHT22;3032;49.484;11.112;2022-08-19T11:26:36;24.80;99.90
6008;DHT22;3032;49.484;11.112;2022-08-19T11:29:03;24.60;99.90
6008;DHT22;3032;49.484;11.112;2022-08-19T11:31:32;24.60;99.90
6008;DHT22;3032;49.484;11.112;2022-08-19T11:34:00;24.60;99.90
6008;DHT22;3032;49.484;11.112;2022-08-19T11:36:27;24.50;99.90
6008;DHT22;3032;49.484;11.112;2022-08-19T11:38:54;24.50;99.90
6008;DHT22;3032;49.484;11.112;2022-08-19T11:41:21;24.60;99.90
6008;DHT22;3032;49.484;11.112;2022-08-19T11:43:49;24.60;99.90
6008;DHT22;3032;49.484;11.112;2022-08-19T11:46:16;24.40;99.90
6008;DHT22;3032;49.484;11.112;2022-08-19T11:48:42;24.40;99.90
6008;DHT22;3032;49.484;11.112;2022-08-19T11:51:11;24.50;99.90
6008;DHT22;3032;49.484;11.112;2022-08-19T11:53:37;24.30;99.90
6008;DHT22;3032;49.484;11.112;2022-08-19T11:56:04;24.20;99.90
6008;DHT22;3032;49.484;11.112;2022-08-19T11:58:31;24.40;99.90
6008;DHT22;3032;49.484;11.112;2022-08-19T12:00:56;24.50;99.90
6008;DHT22;3032;49.484;11.112;2022-08-19T12:03:22;24.50;99.90
6008;DHT22;3032;49.484;11.112;2022-08-19T12:05:48;24.60;99.90
6008;DHT22;3032;49.484;11.112;2022-08-19T12:08:15;24.80;99.90
6008;DHT22;3032;49.484;11.112;2022-08-19T12:10:42;24.90;99.90
6008;DHT22;3032;49.484;11.112;2022-08-19T12:13:08;25.00;99.90
6008;DHT22;3032;49.484;11.112;2022-08-19T12:15:38;25.00;99.90
6008;DHT22;3032;49.484;11.112;2022-08-19T12:18:06;24.90;99.90
6008;DHT22;3032;49.484;11.112;2022-08-19T12:20:35;24.90;99.90
6008;DHT22;3032;49.484;11.112;2022-08-19T12:23:02;24.70;99.90
6008;DHT22;3032;49.484;11.112;2022-08-19T12:25:27;24.50;99.90
6008;DHT22;3032;49.484;11.112;2022-08-19T12:27:53;24.50;99.90
6008;DHT22;3032;49.484;11.112;2022-08-19T12:30:20;24.50;99.90
6008;DHT22;3032;49.484;11.112;2022-08-19T12:32:45;24.60;99.90
6008;DHT22;3032;49.484;11.112;2022-08-19T12:35:11;24.70;99.90
6008;DHT22;3032;49.484;11.112;2022-08-19T12:37:38;24.90;99.90
6008;DHT22;3032;49.484;11.112;2022-08-19T12:40:04;24.80;99.90
6008;DHT22;3032;49.484;11.112;2022-08-19T12:42:30;25.00;99.90
6008;DHT22;3032;49.484;11.112;2022-08-19T12:44:56;24.80;99.90
6008;DHT22;3032;49.484;11.112;2022-08-19T12:47:21;25.00;99.90
6008;DHT22;3032;49.484;11.112;2022-08-19T12:49:48;25.20;99.90
6008;DHT22;3032;49.484;11.112;2022-08-19T12:52:14;25.10;99.90
6008;DHT22;3032;49.484;11.112;2022-08-19T12:54:41;24.90;99.90
6008;DHT22;3032;49.484;11.112;2022-08-19T12:57:09;24.90;99.90
6008;DHT22;3032;49.484;11.112;2022-08-19T12:59:36;25.00;99.90
6008;DHT22;3032;49.484;11.112;2022-08-19T13:02:04;24.90;99.90
6008;DHT22;3032;49.484;11.112;2022-08-19T13:04:32;25.00;99.90
6008;DHT22;3032;49.484;11.112;2022-08-19T13:06:58;25.00;99.90
6008;DHT22;3032;49.484;11.112;2022-08-19T13:09:24;24.90;99.90
6008;DHT22;3032;49.484;11.112;2022-08-19T13:11:49;24.90;99.90
6008;DHT22;3032;49.484;11.112;2022-08-19T13:14:15;25.00;99.90
6008;DHT22;3032;49.484;11.112;2022-08-19T13:16:40;25.10;99.90
6008;DHT22;3032;49.484;11.112;2022-08-19T13:19:06;24.90;99.90
6008;DHT22;3032;49.484;11.112;2022-08-19T13:21:33;24.90;99.90
6008;DHT22;3032;49.484;11.112;2022-08-19T13:23:58;25.10;99.90
6008;DHT22;3032;49.484;11.112;2022-08-19T13:26:24;25.20;99.90
6008;DHT22;3032;49.484;11.112;2022-08-19T13:28:50;25.30;99.90
6008;DHT22;3032;49.484;11.112;2022-08-19T13:31:38;25.30;99.90
6008;DHT22;3032;49.484;11.112;2022-08-19T13:34:34;25.10;99.90
6008;DHT22;3032;49.484;11.112;2022-08-19T13:37:01;25.10;99.90
6008;DHT22;3032;49.484;11.112;2022-08-19T13:39:29;25.10;99.90
6008;DHT22;3032;49.484;11.112;2022-08-19T13:41:55;25.50;99.90
6008;DHT22;3032;49.484;11.112;2022-08-19T13:44:20;25.30;99.90
6008;DHT22;3032;49.484;11.112;2022-08-19T13:46:47;25.30;99.90
6008;DHT22;3032;49.484;11.112;2022-08-19T13:49:14;25.20;99.90
6008;DHT22;3032;49.484;11.112;2022-08-19T13:51:41;25.10;99.90
6008;DHT22;3032;49.484;11.112;2022-08-19T13:54:08;25.00;99.90
6008;DHT22;3032;49.484;11.112;2022-08-19T13:56:34;25.00;99.90
6008;DHT22;3032;49.484;11.112;2022-08-19T13:59:01;24.70;99.90
6008;DHT22;3032;49.484;11.112;2022-08-19T14:01:27;24.70;99.90
6008;DHT22;3032;49.484;11.112;2022-08-19T14:03:52;24.50;99.90
6008;DHT22;3032;49.484;11.112;2022-08-19T14:06:19;24.50;99.90
6008;DHT22;3032;49.484;11.112;2022-08-19T14:08:45;24.40;99.90
6008;DHT22;3032;49.484;11.112;2022-08-19T14:11:11;24.20;99.90
6008;DHT22;3032;49.484;11.112;2022-08-19T14:13:37;24.10;99.90
6008;DHT22;3032;49.484;11.112;2022-08-19T14:16:08;24.00;99.90
6008;DHT22;3032;49.484;11.112;2022-08-19T14:18:33;23.80;99.90
6008;DHT22;3032;49.484;11.112;2022-08-19T14:20:59;23.60;99.90
6008;DHT22;3032;49.484;11.112;2022-08-19T14:23:25;23.30;99.90
6008;DHT22;3032;49.484;11.112;2022-08-19T14:25:51;23.00;99.90
6008;DHT22;3032;49.484;11.112;2022-08-19T14:28:16;22.50;99.90
6008;DHT22;3032;49.484;11.112;2022-08-19T14:30:42;22.30;99.90
6008;DHT22;3032;49.484;11.112;2022-08-19T14:33:09;22.40;99.90
6008;DHT22;3032;49.484;11.112;2022-08-19T14:35:36;22.40;99.90
6008;DHT22;3032;49.484;11.112;2022-08-19T14:38:04;22.40;99.90
6008;DHT22;3032;49.484;11.112;2022-08-19T14:40:31;22.50;99.90
6008;DHT22;3032;49.484;11.112;2022-08-19T14:43:00;22.40;99.90
6008;DHT22;3032;49.484;11.112;2022-08-19T14:45:31;22.70;99.90
6008;DHT22;3032;49.484;11.112;2022-08-19T14:47:57;22.80;99.90
6008;DHT22;3032;49.484;11.112;2022-08-19T14:50:24;22.80;99.90
6008;DHT22;3032;49.484;11.112;2022-08-19T14:52:58;22.90;99.90
6008;DHT22;3032;49.484;11.112;2022-08-19T14:55:25;22.90;99.90
6008;DHT22;3032;49.484;11.112;2022-08-19T14:57:51;23.00;99.90
6008;DHT22;3032;49.484;11.112;2022-08-19T15:00:16;23.40;99.90
6008;DHT22;3032;49.484;11.112;2022-08-19T15:02:42;23.10;99.90
6008;DHT22;3032;49.484;11.112;2022-08-19T15:05:09;23.20;99.90
6008;DHT22;3032;49.484;11.112;2022-08-19T15:07:36;23.20;99.90
6008;DHT22;3032;49.484;11.112;2022-08-19T15:10:03;23.30;99.90
6008;DHT22;3032;49.484;11.112;2022-08-19T15:12:29;23.30;99.90
6008;DHT22;3032;49.484;11.112;2022-08-19T15:14:56;23.30;99.90
6008;DHT22;3032;49.484;11.112;2022-08-19T15:17:21;23.40;99.90
6008;DHT22;3032;49.484;11.112;2022-08-19T15:19:47;23.50;99.90
6008;DHT22;3032;49.484;11.112;2022-08-19T15:22:13;23.40;99.90
6008;DHT22;3032;49.484;11.112;2022-08-19T15:24:38;23.50;99.90
6008;DHT22;3032;49.484;11.112;2022-08-19T15:27:04;23.40;99.90
6008;DHT22;3032;49.484;11.112;2022-08-19T15:29:30;23.20;99.90
6008;DHT22;3032;49.484;11.112;2022-08-19T15:31:57;23.10;99.90
6008;DHT22;3032;49.484;11.112;2022-08-19T15:34:24;23.00;99.90
6008;DHT22;3032;49.484;11.112;2022-08-19T15:36:53;23.00;99.90
6008;DHT22;3032;49.484;11.112;2022-08-19T15:39:19;23.00;99.90
6008;DHT22;3032;49.484;11.112;2022-08-19T15:41:46;23.00;99.90
6008;DHT22;3032;49.484;11.112;2022-08-19T15:44:15;23.00;99.90
6008;DHT22;3032;49.484;11.112;2022-08-19T15:46:44;22.90;99.90
6008;DHT22;3032;49.484;11.112;2022-08-19T15:49:12;23.00;99.90
6008;DHT22;3032;49.484;11.112;2022-08-19T15:51:40;22.80;99.90
6008;DHT22;3032;49.484;11.112;2022-08-19T15:54:10;22.80;99.90
6008;DHT22;3032;49.484;11.112;2022-08-19T15:56:37;22.60;99.90
6008;DHT22;3032;49.484;11.112;2022-08-19T15:59:21;22.60;99.90